Time;durP1;ratioP1;P1;durP2;ratioP2;P2;SDS_P1;SDS_P2;PMS_P1;PMS_P2;Temp;Humidity;BMP_temperature;BMP_pressure;BME280_temperature;BME280_humidity;BME280_pressure;Samples;Min_cycle;Max_cycle;Signal;HPM_P1;HPM_P2
2021/08/06 00:05:39;;;;;;;2.20;1.13;;;;;;;;;;5941219;23;21546;-94
2021/08/06 00:44:52;;;;;;;0.90;0.87;;;;;;;;;;4967786;29;20562;-93
2021/08/06 00:49:56;;;;;;;1.47;1.03;;;;;;;;;;5054512;23;20884;-93
2021/08/06 01:06:44;;;;;;;1.77;0.90;;;;;;;;;;5002442;23;20483;-96
2021/08/06 01:09:26;;;;;;;2.40;1.17;;;;;;;;;;4970938;28;20494;-94
2021/08/06 01:20:28;;;;;;;1.30;1.20;;;;;;;;;;4971200;29;20450;-94
2021/08/06 01:23:01;;;;;;;2.70;1.30;;;;;;;;;;4957807;29;20502;-92
2021/08/06 01:25:37;;;;;;;1.20;1.10;;;;;;;;;;4963947;28;20462;-93
2021/08/06 01:28:10;;;;;;;1.60;1.00;;;;;;;;;;4964403;29;21049;-93
2021/08/06 01:30:37;;;;;;;1.37;1.13;;;;;;;;;;4925310;29;20562;-93
2021/08/06 01:33:04;;;;;;;1.13;1.03;;;;;;;;;;4927087;29;20573;-94
2021/08/06 01:35:32;;;;;;;2.00;0.83;;;;;;;;;;4922627;29;20459;-93
2021/08/06 01:38:03;;;;;;;2.10;1.50;;;;;;;;;;5009303;23;20482;-94
2021/08/06 01:46:27;;;;;;;2.43;1.27;;;;;;;;;;5143635;23;20490;-95
2021/08/06 01:51:55;;;;;;;1.47;1.10;;;;;;;;;;4927865;29;20444;-93
2021/08/06 01:54:24;;;;;;;2.17;1.07;;;14.50;99.90;;;;;;4949059;29;20452;-96
2021/08/06 01:56:54;;;;;;;1.67;1.07;;;;;;;;;;4942601;29;20464;-93
2021/08/06 02:01:58;;;;;;;1.47;1.20;;;;;;;;;;5002426;23;20998;-92
2021/08/06 02:04:26;;;;;;;1.23;1.13;;;;;;;;;;4962903;29;20461;-93
2021/08/06 02:06:54;;;;;;;1.50;1.00;;;;;;;;;;4964879;29;20538;-94
2021/08/06 02:12:19;;;;;;;1.53;1.17;;;;;;;;;;4969679;29;20451;-94
2021/08/06 02:15:02;;;;;;;1.53;1.03;;;;;;;;;;4972593;28;20460;-93
2021/08/06 02:17:49;;;;;;;1.40;1.30;;;;;;;;;;4939225;29;20475;-93
2021/08/06 02:20:27;;;;;;;3.57;1.00;;;;;;;;;;4941910;29;20483;-93
2021/08/06 02:23:07;;;;;;;2.73;1.03;;;;;;;;;;4972260;28;20470;-93
2021/08/06 02:28:11;;;;;;;1.40;1.30;;;;;;;;;;4948181;29;20499;-94
2021/08/06 02:33:27;;;;;;;1.73;1.30;;;;;;;;;;4955060;28;20443;-95
2021/08/06 02:35:54;;;;;;;1.20;1.10;;;;;;;;;;4950437;29;20476;-93
2021/08/06 02:38:31;;;;;;;1.53;1.30;;;;;;;;;;4946340;29;20900;-93
2021/08/06 02:41:02;;;;;;;1.30;1.20;;;;;;;;;;4952212;29;20451;-92
2021/08/06 02:49:07;;;;;;;1.63;1.50;;;;;;;;;;4971630;29;20475;-93
2021/08/06 02:54:10;;;;;;;1.07;0.97;;;;;;;;;;5059602;23;20486;-94
2021/08/06 02:56:37;;;;;;;1.17;1.07;;;;;;;;;;4979688;28;20683;-93
2021/08/06 03:05:00;;;;;;;1.27;1.07;;;;;;;;;;5156883;23;20495;-94
2021/08/06 03:13:17;;;;;;;1.27;1.17;;;;;;;;;;4972487;29;20953;-94
2021/08/06 03:15:48;;;;;;;1.17;0.97;;;;;;;;;;4966291;29;20455;-93
2021/08/06 03:32:17;;;;;;;1.40;1.20;;;;;;;;;;4895706;29;20863;-93
2021/08/06 03:37:53;;;;;;;3.43;1.60;;;;;;;;;;5333330;23;20474;-94
2021/08/06 03:52:01;;;;;;;1.60;1.30;;;;;;;;;;5087578;23;20507;-91
2021/08/06 03:54:28;;;;;;;1.40;1.30;;;;;;;;;;5125826;23;20456;-93
2021/08/06 03:56:56;;;;;;;2.73;1.27;;;;;;;;;;4971859;28;20571;-92
2021/08/06 04:07:08;;;;;;;1.50;1.40;;;;;;;;;;6028592;23;20450;-92
2021/08/06 04:17:38;;;;;;;3.60;2.10;;;;;;;;;;5521267;23;20482;-92
2021/08/06 04:31:20;;;;;;;2.90;1.70;;;14.50;99.90;;;;;;5184359;23;21226;-87
2021/08/06 04:36:56;;;;;;;2.83;1.70;;;;;;;;;;5515859;23;20499;-92
2021/08/06 04:39:30;;;;;;;1.70;1.60;;;;;;;;;;4961901;29;20505;-92
2021/08/06 04:44:36;;;;;;;2.67;1.67;;;;;;;;;;5236714;23;20490;-92
2021/08/06 04:55:59;;;;;;;1.47;1.37;;;;;;;;;;4946333;29;20484;-92
2021/08/06 04:58:26;;;;;;;1.70;1.60;;;;;;;;;;4937008;29;20462;-92
2021/08/06 05:00:53;;;;;;;1.70;1.60;;;;;;;;;;4938365;29;20455;-90
2021/08/06 05:03:20;;;;;;;1.53;1.43;;;;;;;;;;4939670;29;20491;-90
2021/08/06 05:05:49;;;;;;;2.70;1.20;;;;;;;;;;4940548;29;20459;-85
2021/08/06 05:08:16;;;;;;;2.43;1.80;;;;;;;;;;4938230;29;20456;-86
2021/08/06 05:10:43;;;;;;;1.03;0.93;;;;;;;;;;4939279;29;20456;-87
2021/08/06 05:13:11;;;;;;;2.20;1.90;;;14.50;99.90;;;;;;4939042;29;20996;-88
2021/08/06 05:15:39;;;;;;;2.23;2.03;;;;;;;;;;4938848;29;20450;-86
2021/08/06 05:18:06;;;;;;;1.63;1.53;;;;;;;;;;4936056;29;20501;-84
2021/08/06 05:20:33;;;;;;;1.90;1.70;;;;;;;;;;4939192;29;20452;-86
2021/08/06 05:23:01;;;;;;;1.97;1.87;;;;;;;;;;4937924;29;20907;-87
2021/08/06 05:25:28;;;;;;;2.37;1.90;;;;;;;;;;4938897;29;20459;-89
2021/08/06 05:27:55;;;;;;;3.20;1.77;;;;;;;;;;4938939;29;20459;-86
2021/08/06 05:30:23;;;;;;;3.83;1.17;;;14.30;99.90;;;;;;4938868;29;20456;-85
2021/08/06 05:32:50;;;;;;;2.00;1.90;;;;;;;;;;4938810;29;20459;-85
2021/08/06 05:35:17;;;;;;;2.73;1.53;;;;;;;;;;4938834;29;20466;-88
2021/08/06 05:37:44;;;;;;;2.20;2.00;;;;;;;;;;4937686;29;20464;-88
2021/08/06 05:40:12;;;;;;;1.93;1.73;;;16.60;99.90;;;;;;4935811;29;20817;-89
2021/08/06 05:42:39;;;;;;;2.77;1.63;;;;;;;;;;4938393;29;20861;-89
2021/08/06 05:45:07;;;;;;;6.43;1.80;;;14.50;99.90;;;;;;4938410;29;20459;-87
2021/08/06 05:47:57;;;;;;;2.33;2.07;;;14.50;99.90;;;;;;4938484;29;20471;-89
2021/08/06 05:50:26;;;;;;;2.50;2.00;;;14.40;99.90;;;;;;4916555;29;20445;-90
2021/08/06 05:52:53;;;;;;;4.60;1.87;;;;;;;;;;4918892;29;20488;-85
2021/08/06 05:55:21;;;;;;;2.10;1.93;;;;;;;;;;4919503;29;20456;-87
2021/08/06 05:57:48;;;;;;;3.30;2.10;;;;;;;;;;4919612;29;20445;-87
2021/08/06 06:00:16;;;;;;;4.30;1.80;;;14.80;99.90;;;;;;4919172;29;20452;-88
2021/08/06 06:02:44;;;;;;;2.27;2.00;;;;;;;;;;4919194;29;20485;-89
2021/08/06 06:05:12;;;;;;;2.60;2.13;;;14.70;99.90;;;;;;4919317;29;20456;-87
2021/08/06 06:07:49;;;;;;;1.50;1.40;;;14.90;99.90;;;;;;4917953;29;20444;-85
2021/08/06 06:10:22;;;;;;;2.43;2.17;;;14.20;99.90;;;;;;4898696;29;20609;-87
2021/08/06 06:12:49;;;;;;;3.30;1.53;;;;;;;;;;4897628;29;20454;-86
2021/08/06 06:15:17;;;;;;;2.40;2.20;;;14.80;99.90;;;;;;4899444;29;20442;-88
2021/08/06 06:17:44;;;;;;;3.63;2.00;;;;;;;;;;4896510;29;20454;-90
2021/08/06 06:20:26;;;;;;;2.40;2.20;;;14.50;99.90;;;;;;4897070;29;20465;-90
2021/08/06 06:22:53;;;;;;;2.33;1.63;;;;;;;;;;4898518;29;21017;-90
2021/08/06 06:25:20;;;;;;;1.90;1.70;;;;;;;;;;4898356;29;20458;-90
2021/08/06 06:27:56;;;;;;;3.17;2.70;;;14.90;99.90;;;;;;4903388;29;20463;-93
2021/08/06 06:30:25;;;;;;;3.73;2.13;;;14.90;99.90;;;;;;4919949;29;20455;-92
2021/08/06 06:32:52;;;;;;;3.53;2.27;;;;;;;;;;4916475;29;20452;-96
2021/08/06 06:35:21;;;;;;;2.60;2.10;;;;;;;;;;4912646;29;20442;-93
2021/08/06 06:37:48;;;;;;;2.67;2.40;;;;;;;;;;4897570;29;20489;-91
2021/08/06 06:40:16;;;;;;;2.50;2.30;;;14.90;99.90;;;;;;4900157;29;20494;-89
2021/08/06 06:42:47;;;;;;;6.23;2.13;;;14.90;99.90;;;;;;4901175;29;20485;-92
2021/08/06 06:45:20;;;;;;;2.53;1.90;;;15.10;99.90;;;;;;4873482;29;20454;-93
2021/08/06 06:47:49;;;;;;;1.70;1.60;;;15.90;99.90;;;;;;4869927;29;20458;-92
2021/08/06 06:50:18;;;;;;;2.20;1.73;;;16.10;99.90;;;;;;4899695;29;20450;-88
2021/08/06 06:52:47;;;;;;;1.40;1.20;;;16.30;99.90;;;;;;4901144;29;20486;-89
2021/08/06 06:55:17;;;;;;;3.13;1.50;;;16.80;99.90;;;;;;4899519;29;20837;-90
2021/08/06 06:57:44;;;;;;;3.97;1.30;;;17.00;99.90;;;;;;4908469;29;20461;-89
2021/08/06 07:00:13;;;;;;;1.33;1.10;;;17.30;99.90;;;;;;4917843;29;20826;-93
2021/08/06 07:02:40;;;;;;;2.30;0.83;;;;;;;;;;4914714;29;21070;-88
2021/08/06 07:05:09;;;;;;;1.40;1.27;;;16.00;99.90;;;;;;4919509;29;20460;-92
2021/08/06 07:07:38;;;;;;;1.57;1.10;;;16.80;99.90;;;;;;4917199;29;20452;-89
2021/08/06 07:10:10;;;;;;;1.43;1.33;;;16.60;99.90;;;;;;4901076;29;20460;-92
2021/08/06 07:12:38;;;;;;;1.57;1.30;;;;;;;;;;4918593;29;20461;-92
2021/08/06 07:15:06;;;;;;;1.40;1.27;;;17.10;99.90;;;;;;4909180;29;20547;-86
2021/08/06 07:17:34;;;;;;;2.30;1.60;;;17.00;99.90;;;;;;4898331;29;21140;-85
2021/08/06 07:20:01;;;;;;;2.90;1.40;;;;;;;;;;4898679;29;20453;-90
2021/08/06 07:22:29;;;;;;;1.10;0.90;;;;;;;;;;4897221;29;20465;-86
2021/08/06 07:24:56;;;;;;;1.20;1.10;;;;;;;;;;4898060;29;20469;-87
2021/08/06 07:27:24;;;;;;;1.60;1.50;;;16.70;99.90;;;;;;4898405;29;20465;-88
2021/08/06 07:29:52;;;;;;;1.60;0.77;;;;;;;;;;4898439;29;20454;-88
2021/08/06 07:32:19;;;;;;;1.50;1.40;;;;;;;;;;4898434;29;20981;-89
2021/08/06 07:34:46;;;;;;;1.57;1.33;;;;;;;;;;4900800;29;20465;-90
2021/08/06 07:37:13;;;;;;;3.67;1.60;;;;;;;;;;4898216;29;20464;-91
2021/08/06 07:39:41;;;;;;;1.30;1.10;;;;;;;;;;4901403;29;20454;-91
2021/08/06 07:42:08;;;;;;;2.67;1.40;;;;;;;;;;4912708;29;20751;-93
2021/08/06 07:44:36;;;;;;;1.43;1.33;;;16.90;99.90;;;;;;4919990;29;20496;-91
2021/08/06 07:47:04;;;;;;;2.50;1.60;;;;;;;;;;4842776;29;21000;-94
2021/08/06 07:49:41;;;;;;;2.10;1.30;;;;;;;;;;4846407;29;20988;-93
2021/08/06 07:52:08;;;;;;;2.17;1.70;;;;;;;;;;4842401;29;20488;-89
2021/08/06 07:54:35;;;;;;;2.57;0.77;;;;;;;;;;4841958;29;20600;-91
2021/08/06 07:57:03;;;;;;;2.00;0.83;;;;;;;;;;4838842;29;20471;-88
2021/08/06 07:59:30;;;;;;;3.10;1.20;;;;;;;;;;4836343;29;20462;-88
2021/08/06 08:01:58;;;;;;;1.47;0.63;;;15.50;99.90;;;;;;4837075;29;21006;-90
2021/08/06 08:04:25;;;;;;;2.17;0.80;;;;;;;;;;4828571;29;20497;-88
2021/08/06 08:06:52;;;;;;;1.80;0.90;;;;;;;;;;4896600;29;20465;-90
2021/08/06 08:09:19;;;;;;;0.80;0.80;;;;;;;;;;4897777;29;20462;-90
2021/08/06 08:11:46;;;;;;;0.90;0.70;;;;;;;;;;4897513;29;20949;-89
2021/08/06 08:14:14;;;;;;;0.53;0.33;;;;;;;;;;4898152;29;20454;-92
2021/08/06 08:16:41;;;;;;;1.67;0.87;;;;;;;;;;4897485;29;20961;-87
2021/08/06 08:19:09;;;;;;;0.97;0.80;;;15.70;99.90;;;;;;4898349;29;20465;-89
2021/08/06 08:21:37;;;;;;;0.90;0.80;;;;;;;;;;4897179;29;20445;-91
2021/08/06 08:24:04;;;;;;;2.10;0.77;;;16.30;99.90;;;;;;4898183;29;20496;-87
2021/08/06 08:26:34;;;;;;;1.13;0.70;;;16.50;99.90;;;;;;4897746;29;20457;-89
2021/08/06 08:29:01;;;;;;;1.80;0.80;;;;;;;;;;4897951;29;20517;-89
2021/08/06 08:31:28;;;;;;;1.33;0.60;;;;;;;;;;4897676;29;20461;-89
2021/08/06 08:33:56;;;;;;;1.03;0.77;;;;;;;;;;4896391;29;20465;-90
2021/08/06 08:36:24;;;;;;;0.70;0.60;;;17.20;99.90;;;;;;4895955;29;20438;-89
2021/08/06 08:38:51;;;;;;;3.23;0.73;;;;;;;;;;4896421;29;20450;-90
2021/08/06 08:41:18;;;;;;;0.83;0.63;;;;;;;;;;4897605;29;20826;-89
2021/08/06 08:43:45;;;;;;;2.70;0.70;;;;;;;;;;4897709;29;20850;-91
2021/08/06 08:46:12;;;;;;;1.80;0.50;;;18.20;99.90;;;;;;4902014;29;20797;-88
2021/08/06 08:48:40;;;;;;;2.43;0.80;;;;;;;;;;4898617;29;20969;-89
2021/08/06 08:51:07;;;;;;;0.97;0.73;;;;;;;;;;4900333;29;20493;-90
2021/08/06 08:53:35;;;;;;;0.90;0.63;;;19.10;99.90;;;;;;4918922;29;20460;-91
2021/08/06 08:56:03;;;;;;;2.30;0.70;;;;;;;;;;4887491;29;20456;-90
2021/08/06 08:58:30;;;;;;;0.60;0.50;;;;;;;;;;4919813;29;20460;-91
2021/08/06 09:00:57;;;;;;;1.10;0.60;;;;;;;;;;4916112;29;20945;-90
2021/08/06 09:03:37;;;;;;;1.20;0.60;;;;;;;;;;4917082;29;20488;-92
2021/08/06 09:06:05;;;;;;;0.70;0.70;;;;;;;;;;4919760;29;20528;-93
2021/08/06 09:08:32;;;;;;;1.13;0.60;;;;;;;;;;4913943;29;20469;-92
2021/08/06 09:11:00;;;;;;;1.20;0.70;;;18.70;99.90;;;;;;4921142;29;20460;-91
2021/08/06 09:13:28;;;;;;;1.03;0.60;;;;;;;;;;4921434;29;20457;-93
2021/08/06 09:15:56;;;;;;;0.73;0.70;;;19.10;99.90;;;;;;4919149;29;20924;-93
2021/08/06 09:18:28;;;;;;;1.03;0.93;;;19.00;99.90;;;;;;4916814;29;20461;-90
2021/08/06 09:20:57;;;;;;;1.03;0.60;;;18.80;99.90;;;;;;4918093;29;20452;-91
2021/08/06 09:23:54;;;;;;;0.80;0.80;;;19.00;99.90;;;;;;4920251;29;21006;-93
2021/08/06 09:26:40;;;;;;;1.10;0.67;;;19.50;99.90;;;;;;4905690;29;20458;-94
2021/08/06 09:29:26;;;;;;;1.40;0.70;;;;;;;;;;4901706;29;20458;-92
2021/08/06 09:31:59;;;;;;;1.27;0.63;;;19.90;99.90;;;;;;4901528;29;20505;-94
2021/08/06 09:34:28;;;;;;;0.80;0.60;;;19.50;99.90;;;;;;4902554;29;20501;-95
2021/08/06 09:37:00;;;;;;;1.57;1.23;;;19.20;99.90;;;;;;4900322;29;20521;-90
2021/08/06 09:39:36;;;;;;;0.60;0.60;;;18.40;99.90;;;;;;4902090;29;20815;-94
2021/08/06 09:42:06;;;;;;;1.53;0.90;;;18.50;99.90;;;;;;4903581;29;20453;-93
2021/08/06 09:44:38;;;;;;;1.37;0.60;;;;;;;;;;4906677;29;20500;-94
2021/08/06 09:47:17;;;;;;;1.10;0.90;;;18.70;99.90;;;;;;4889841;29;20462;-92
2021/08/06 09:49:49;;;;;;;1.43;0.90;;;;;;;;;;4886635;29;20465;-94
2021/08/06 09:52:16;;;;;;;1.40;0.90;;;;;;;;;;4883782;29;20632;-90
2021/08/06 09:54:50;;;;;;;0.87;0.80;;;20.40;99.90;;;;;;4885836;29;20457;-93
2021/08/06 09:57:19;;;;;;;1.77;1.00;;;20.80;99.90;;;;;;4882557;29;20446;-92
2021/08/06 09:59:53;;;;;;;1.37;0.80;;;21.00;99.90;;;;;;4882777;29;20458;-91
2021/08/06 10:02:23;;;;;;;0.90;0.80;;;20.10;99.90;;;;;;4882427;29;20787;-94
2021/08/06 10:05:03;;;;;;;1.53;0.87;;;20.00;99.90;;;;;;4883203;29;20593;-92
2021/08/06 10:07:32;;;;;;;1.43;0.93;;;19.70;99.90;;;;;;4885443;29;20462;-94
2021/08/06 10:09:59;;;;;;;1.10;0.93;;;;;;;;;;4883668;29;20439;-91
2021/08/06 10:12:28;;;;;;;1.37;1.10;;;19.10;99.90;;;;;;4886963;29;20468;-92
2021/08/06 10:14:55;;;;;;;3.43;1.07;;;;;;;;;;4921888;29;20456;-90
2021/08/06 10:17:22;;;;;;;2.03;0.67;;;17.60;99.90;;;;;;4920979;29;20453;-89
2021/08/06 10:19:50;;;;;;;0.60;0.50;;;;;;;;;;4921095;29;20559;-92
2021/08/06 10:22:18;;;;;;;1.83;0.80;;;18.80;99.90;;;;;;4921563;29;20457;-94
2021/08/06 10:24:47;;;;;;;1.83;0.80;;;18.80;99.90;;;;;;4921388;29;20492;-92
2021/08/06 10:27:14;;;;;;;3.20;0.90;;;;;;;;;;4918666;29;20449;-88
2021/08/06 10:29:57;;;;;;;2.07;1.00;;;18.80;99.90;;;;;;4922412;29;20456;-91
2021/08/06 10:32:25;;;;;;;1.00;0.80;;;;;;;;;;4923855;29;20449;-92
2021/08/06 10:35:20;;;;;;;1.60;1.10;;;18.70;99.90;;;;;;4935806;29;20457;-91
2021/08/06 10:37:56;;;;;;;1.60;0.90;;;18.70;99.90;;;;;;4917857;29;20437;-92
2021/08/06 10:41:01;;;;;;;1.40;0.90;;;18.70;99.90;;;;;;4922810;29;20457;-95
2021/08/06 10:43:36;;;;;;;1.13;0.90;;;18.60;99.90;;;;;;4921427;29;20831;-93
2021/08/06 10:46:05;;;;;;;2.60;0.93;;;;;;;;;;4921801;29;20452;-93
2021/08/06 10:48:37;;;;;;;1.93;0.77;;;18.40;99.90;;;;;;4925293;29;20437;-87
2021/08/06 10:51:25;;;;;;;1.83;1.10;;;18.50;99.90;;;;;;4917728;29;20472;-92
2021/08/06 10:54:38;;;;;;;1.00;0.70;;;18.50;99.90;;;;;;4900533;29;20473;-90
2021/08/06 10:59:41;;;;;;;1.73;0.80;;;;;;;;;;5132915;23;20562;-93
2021/08/06 11:02:46;;;;;;;2.97;1.23;;;18.70;99.90;;;;;;4944186;29;20523;-89
2021/08/06 11:05:33;;;;;;;4.17;0.90;;;18.70;99.90;;;;;;4941487;29;20502;-93
2021/08/06 11:08:03;;;;;;;3.53;1.20;;;18.90;99.90;;;;;;4940982;29;20514;-94
2021/08/06 11:10:49;;;;;;;1.53;1.00;;;;;;;;;;4940180;29;20918;-93
2021/08/06 11:13:54;;;;;;;1.00;0.60;;;20.00;99.90;;;;;;4944695;29;20507;-89
2021/08/06 11:16:22;;;;;;;1.80;0.83;;;;;;;;;;4880951;29;20990;-87
2021/08/06 11:18:51;;;;;;;1.17;0.87;;;20.40;99.90;;;;;;4911765;29;20468;-91
2021/08/06 11:21:22;;;;;;;1.80;0.83;;;20.70;99.90;;;;;;4931334;29;20463;-93
2021/08/06 11:23:56;;;;;;;6.10;1.23;;;20.40;99.90;;;;;;4947977;29;20488;-91
2021/08/06 11:26:24;;;;;;;2.70;0.70;;;;;;;;;;4958449;28;20432;-89
2021/08/06 11:28:53;;;;;;;2.20;1.00;;;;;;;;;;4947040;28;20470;-90
2021/08/06 11:31:21;;;;;;;1.07;0.90;;;21.30;99.90;;;;;;4943866;29;20445;-89
2021/08/06 11:34:00;;;;;;;2.30;0.50;;;21.20;99.90;;;;;;4937837;29;20448;-90
2021/08/06 11:36:27;;;;;;;1.10;0.70;;;;;;;;;;4934490;29;20455;-87
2021/08/06 11:39:02;;;;;;;10.03;1.00;;;;;;;;;;4936073;29;20814;-86
2021/08/06 11:41:30;;;;;;;1.50;0.87;;;20.80;99.90;;;;;;4938054;29;20484;-90
2021/08/06 11:43:58;;;;;;;1.00;0.80;;;;;;;;;;4940662;29;20459;-87
2021/08/06 11:46:26;;;;;;;1.27;0.90;;;;;;;;;;4938487;29;20464;-86
2021/08/06 11:48:57;;;;;;;0.87;0.50;;;19.80;99.90;;;;;;4937736;29;20471;-84
2021/08/06 11:51:25;;;;;;;1.33;0.93;;;19.70;99.90;;;;;;4935095;29;20482;-88
2021/08/06 11:53:52;;;;;;;2.87;0.73;;;;;;;;;;4934365;29;20452;-87
2021/08/06 11:56:21;;;;;;;1.53;0.60;;;20.30;99.90;;;;;;4904687;29;20823;-87
2021/08/06 11:58:48;;;;;;;1.67;0.70;;;;;;;;;;4936970;29;20514;-89
2021/08/06 12:01:20;;;;;;;0.73;0.73;;;19.60;99.90;;;;;;4938746;29;20444;-90
2021/08/06 12:03:48;;;;;;;1.47;1.03;;;;;;;;;;4939499;29;20515;-88
2021/08/06 12:06:16;;;;;;;0.73;0.67;;;19.60;99.90;;;;;;4936727;29;20507;-86
2021/08/06 12:08:46;;;;;;;2.70;0.90;;;19.90;99.90;;;;;;4938565;29;20451;-88
2021/08/06 12:11:16;;;;;;;2.90;0.93;;;20.70;99.90;;;;;;4935836;29;20464;-91
2021/08/06 12:13:50;;;;;;;0.80;0.53;;;21.40;99.90;;;;;;4879389;29;20447;-91
2021/08/06 12:16:19;;;;;;;1.30;0.73;;;21.50;99.90;;;;;;4881439;29;21051;-90
2021/08/06 12:18:48;;;;;;;0.90;0.70;;;21.30;99.90;;;;;;4874206;29;20470;-87
2021/08/06 12:21:18;;;;;;;0.90;0.70;;;21.50;99.90;;;;;;4846559;29;20458;-90
2021/08/06 12:23:49;;;;;;;0.70;0.57;;;21.40;99.90;;;;;;4882270;29;20551;-91
2021/08/06 12:26:20;;;;;;;1.63;0.60;;;21.70;99.90;;;;;;4880451;29;20498;-89
2021/08/06 12:28:51;;;;;;;1.50;0.73;;;21.00;99.90;;;;;;4884905;29;20468;-94
2021/08/06 12:31:21;;;;;;;3.20;1.07;;;21.40;99.90;;;;;;4893581;29;20464;-89
2021/08/06 12:33:51;;;;;;;0.70;0.70;;;22.10;99.90;;;;;;4937310;29;21014;-91
2021/08/06 12:36:23;;;;;;;1.70;1.07;;;22.30;99.90;;;;;;4932166;29;20952;-91
2021/08/06 12:38:52;;;;;;;1.63;1.17;;;22.50;99.90;;;;;;4939734;29;20539;-88
2021/08/06 12:41:27;;;;;;;2.10;0.90;;;22.80;99.90;;;;;;4938355;29;20454;-88
2021/08/06 12:44:28;;;;;;;2.20;1.20;;;22.40;99.90;;;;;;4939834;29;20447;-90
2021/08/06 12:47:15;;;;;;;1.40;0.90;;;22.20;99.90;;;;;;4881769;29;20462;-88
2021/08/06 12:49:46;;;;;;;0.90;0.70;;;21.70;99.90;;;;;;4936678;29;20551;-91
2021/08/06 12:52:19;;;;;;;2.10;0.70;;;21.30;99.90;;;;;;4933476;29;20490;-90
2021/08/06 12:55:01;;;;;;;1.53;0.90;;;21.10;99.90;;;;;;4940227;29;20980;-91
2021/08/06 12:57:40;;;;;;;2.17;1.40;;;20.80;99.90;;;;;;4937297;29;20522;-91
2021/08/06 13:00:22;;;;;;;1.83;0.70;;;22.20;99.90;;;;;;4940200;29;20468;-88
2021/08/06 13:03:09;;;;;;;2.03;0.80;;;22.10;99.90;;;;;;4940477;29;20456;-88
2021/08/06 13:05:39;;;;;;;4.60;2.23;;;22.00;99.90;;;;;;4936418;29;20854;-89
2021/08/06 13:08:18;;;;;;;3.60;0.90;;;22.20;99.90;;;;;;4933402;29;20462;-90
2021/08/06 13:10:49;;;;;;;1.37;0.80;;;23.20;99.90;;;;;;4939461;29;20463;-88
2021/08/06 13:13:16;;;;;;;1.73;0.80;;;;;;;;;;4894809;29;20449;-90
2021/08/06 13:15:44;;;;;;;1.17;0.50;;;23.60;99.90;;;;;;4896107;29;20976;-88
2021/08/06 13:18:12;;;;;;;2.80;0.80;;;;;;;;;;4896090;29;20454;-89
2021/08/06 13:20:42;;;;;;;1.50;0.73;;;22.40;99.90;;;;;;4899269;29;20446;-91
2021/08/06 13:23:11;;;;;;;1.27;1.03;;;22.10;99.90;;;;;;4903144;29;20489;-90
2021/08/06 13:25:39;;;;;;;1.20;1.03;;;;;;;;;;4900231;29;20517;-88
2021/08/06 13:28:09;;;;;;;1.43;0.67;;;21.60;99.90;;;;;;4900072;29;20461;-87
2021/08/06 13:30:42;;;;;;;2.77;0.90;;;21.70;99.90;;;;;;4925497;29;20428;-90
2021/08/06 13:33:10;;;;;;;2.73;1.23;;;21.40;99.90;;;;;;4942394;29;20455;-93
2021/08/06 13:35:37;;;;;;;3.40;0.97;;;;;;;;;;4942878;29;20460;-89
2021/08/06 13:38:04;;;;;;;2.80;0.83;;;;;;;;;;4942427;29;20448;-91
2021/08/06 13:40:33;;;;;;;5.37;1.30;;;22.70;99.90;;;;;;4945370;29;20452;-88
2021/08/06 13:43:01;;;;;;;2.97;1.00;;;;;;;;;;4937235;29;20510;-89
2021/08/06 13:45:34;;;;;;;1.40;0.70;;;22.20;99.90;;;;;;4942235;29;20491;-88
2021/08/06 13:48:01;;;;;;;5.13;0.90;;;;;;;;;;4926658;29;20440;-88
2021/08/06 13:50:28;;;;;;;1.77;1.07;;;;;;;;;;4938734;29;20456;-88
2021/08/06 13:52:55;;;;;;;1.40;0.60;;;;;;;;;;4941530;29;20456;-91
2021/08/06 13:55:23;;;;;;;1.50;1.00;;;;;;;;;;4950672;29;20452;-89
2021/08/06 13:57:50;;;;;;;0.73;0.57;;;;;;;;;;4948060;29;20463;-89
2021/08/06 14:00:17;;;;;;;2.77;0.90;;;;;;;;;;4942654;29;20475;-88
2021/08/06 14:02:46;;;;;;;0.87;0.50;;;21.70;99.90;;;;;;4939397;29;20455;-87
2021/08/06 14:05:26;;;;;;;1.00;0.70;;;21.50;99.90;;;;;;4946528;29;20491;-87
2021/08/06 14:07:54;;;;;;;1.30;0.77;;;;;;;;;;4939317;29;20547;-88
2021/08/06 14:10:21;;;;;;;1.13;0.67;;;;;;;;;;4941562;29;20498;-88
2021/08/06 14:12:48;;;;;;;1.80;0.90;;;;;;;;;;4942699;29;20456;-87
2021/08/06 14:15:15;;;;;;;1.20;0.77;;;;;;;;;;4959521;28;20701;-86
2021/08/06 14:17:42;;;;;;;1.17;0.87;;;;;;;;;;4954653;29;20460;-88
2021/08/06 14:20:12;;;;;;;1.50;1.00;;;21.10;99.90;;;;;;4941031;29;20448;-88
2021/08/06 14:22:39;;;;;;;1.57;0.70;;;;;;;;;;4935332;29;20448;-89
2021/08/06 14:25:07;;;;;;;0.80;0.63;;;21.30;99.90;;;;;;4940656;29;20490;-86
2021/08/06 14:27:34;;;;;;;0.80;0.63;;;;;;;;;;4933283;29;20453;-87
2021/08/06 14:30:01;;;;;;;0.87;0.70;;;;;;;;;;4935342;29;20452;-91
2021/08/06 14:32:28;;;;;;;1.93;0.60;;;;;;;;;;4937750;29;20467;-88
2021/08/06 14:34:56;;;;;;;1.00;0.50;;;;;;;;;;4935567;29;20937;-87
2021/08/06 14:37:24;;;;;;;6.03;1.23;;;21.00;99.90;;;;;;4937694;29;20463;-90
2021/08/06 14:39:51;;;;;;;1.60;0.97;;;;;;;;;;4889307;29;20468;-88
2021/08/06 14:42:18;;;;;;;2.93;0.90;;;;;;;;;;4878793;29;20607;-90
2021/08/06 14:44:48;;;;;;;1.27;0.90;;;;;;;;;;4882986;29;20478;-88
2021/08/06 14:47:16;;;;;;;1.67;1.00;;;;;;;;;;4879183;29;20493;-89
2021/08/06 14:49:43;;;;;;;1.70;0.70;;;;;;;;;;4880954;29;20462;-88
2021/08/06 14:52:10;;;;;;;1.20;1.03;;;;;;;;;;4882199;29;21002;-87
2021/08/06 14:54:50;;;;;;;0.70;0.60;;;;;;;;;;4887413;29;20556;-93
2021/08/06 14:57:24;;;;;;;1.30;0.70;;;;;;;;;;4895521;29;20467;-94
2021/08/06 14:59:51;;;;;;;0.97;0.70;;;;;;;;;;4947226;23;20510;-92
2021/08/06 15:02:18;;;;;;;1.53;0.80;;;;;;;;;;4944934;29;20452;-95
2021/08/06 15:04:45;;;;;;;1.63;0.80;;;;;;;;;;4944100;29;20460;-92
2021/08/06 15:07:12;;;;;;;1.27;0.60;;;;;;;;;;4940086;29;20506;-88
2021/08/06 15:09:39;;;;;;;1.40;0.83;;;;;;;;;;4942419;29;20466;-92
2021/08/06 15:12:08;;;;;;;1.30;0.80;;;22.10;99.90;;;;;;4939840;29;20460;-90
2021/08/06 15:14:36;;;;;;;1.20;0.70;;;;;;;;;;4938354;29;20448;-92
2021/08/06 15:17:03;;;;;;;2.63;0.67;;;;;;;;;;4935804;29;20456;-92
2021/08/06 15:19:30;;;;;;;1.10;0.80;;;;;;;;;;4936276;29;20529;-92
2021/08/06 15:21:59;;;;;;;1.10;0.63;;;;;;;;;;4937147;29;20570;-92
2021/08/06 15:24:26;;;;;;;3.20;1.10;;;;;;;;;;4937508;29;20959;-91
2021/08/06 15:26:53;;;;;;;2.10;0.90;;;;;;;;;;4937613;29;20587;-90
2021/08/06 15:29:21;;;;;;;2.17;0.97;;;22.40;99.90;;;;;;4939365;29;20463;-88
2021/08/06 15:31:52;;;;;;;2.30;1.10;;;;;;;;;;4919750;29;20440;-93
2021/08/06 15:34:19;;;;;;;1.70;0.90;;;;;;;;;;4938125;29;20807;-91
2021/08/06 15:36:46;;;;;;;1.13;0.77;;;22.80;99.90;;;;;;4935772;29;20460;-86
2021/08/06 15:39:13;;;;;;;1.43;0.70;;;;;;;;;;4936881;29;20473;-89
2021/08/06 15:41:40;;;;;;;4.93;2.10;;;;;;;;;;4936965;29;20932;-91
2021/08/06 15:44:08;;;;;;;1.07;0.70;;;;;;;;;;4942645;29;20827;-92
2021/08/06 15:46:36;;;;;;;1.23;0.90;;;;;;;;;;4936044;29;20491;-91
2021/08/06 15:49:04;;;;;;;1.17;0.77;;;;;;;;;;4933874;29;20459;-91
2021/08/06 15:51:31;;;;;;;4.10;1.03;;;;;;;;;;4937001;29;20456;-92
2021/08/06 15:53:58;;;;;;;1.33;0.90;;;;;;;;;;4937218;29;20463;-90
2021/08/06 15:56:25;;;;;;;0.93;0.80;;;;;;;;;;4939441;29;20463;-91
2021/08/06 15:58:52;;;;;;;1.00;0.90;;;;;;;;;;4946305;29;20494;-88
2021/08/06 16:01:19;;;;;;;1.90;0.80;;;;;;;;;;4942605;29;20439;-92
2021/08/06 16:03:50;;;;;;;1.63;1.13;;;;;;;;;;5412049;23;20439;-91
2021/08/06 16:06:17;;;;;;;1.23;0.93;;;;;;;;;;4982591;23;20498;-90
2021/08/06 16:08:44;;;;;;;2.07;0.97;;;;;;;;;;4985150;28;20474;-90
2021/08/06 16:11:12;;;;;;;1.73;0.87;;;;;;;;;;4983502;28;20438;-90
2021/08/06 16:13:39;;;;;;;1.20;0.67;;;;;;;;;;4980921;28;20454;-89
2021/08/06 16:16:06;;;;;;;1.73;0.90;;;21.10;99.90;;;;;;4978943;28;20442;-90
2021/08/06 16:18:33;;;;;;;1.63;1.00;;;;;;;;;;4974067;28;20454;-90
2021/08/06 16:21:02;;;;;;;2.30;1.10;;;21.70;99.90;;;;;;4979586;28;20459;-93
2021/08/06 16:23:30;;;;;;;1.20;0.73;;;21.60;99.90;;;;;;4971677;28;20462;-89
2021/08/06 16:25:57;;;;;;;3.23;1.07;;;;;;;;;;4971637;28;20824;-90
2021/08/06 16:28:24;;;;;;;1.50;0.90;;;;;;;;;;4979691;28;20453;-92
2021/08/06 16:30:52;;;;;;;2.87;1.73;;;;;;;;;;4977903;28;20810;-93
2021/08/06 16:33:19;;;;;;;0.93;0.73;;;;;;;;;;4978048;28;20474;-90
2021/08/06 16:35:47;;;;;;;2.23;1.20;;;;;;;;;;4977531;28;20454;-90
2021/08/06 16:38:15;;;;;;;1.10;1.00;;;20.60;99.90;;;;;;4952713;28;20451;-89
2021/08/06 16:40:42;;;;;;;2.90;1.00;;;;;;;;;;4952146;29;20466;-88
2021/08/06 16:43:09;;;;;;;1.33;0.63;;;;;;;;;;4951716;29;20478;-88
2021/08/06 16:45:36;;;;;;;1.27;0.80;;;;;;;;;;4957562;29;20827;-88
2021/08/06 16:48:07;;;;;;;2.30;0.97;;;;;;;;;;4957992;28;20463;-94
2021/08/06 16:50:35;;;;;;;2.77;1.20;;;20.70;99.90;;;;;;4961643;29;20509;-92
2021/08/06 16:53:02;;;;;;;0.87;0.50;;;;;;;;;;4959432;28;20462;-94
2021/08/06 16:55:30;;;;;;;1.47;0.80;;;20.70;99.90;;;;;;4961926;28;20463;-93
2021/08/06 16:57:57;;;;;;;1.00;0.87;;;;;;;;;;4963110;29;20478;-91
2021/08/06 17:00:24;;;;;;;2.53;0.93;;;;;;;;;;4961051;29;20454;-92
2021/08/06 17:02:51;;;;;;;1.33;0.90;;;;;;;;;;4961791;29;20549;-92
2021/08/06 17:05:19;;;;;;;2.47;0.80;;;;;;;;;;4960590;29;20479;-92
2021/08/06 17:07:46;;;;;;;2.50;0.90;;;;;;;;;;4960488;28;20491;-92
2021/08/06 17:10:14;;;;;;;0.90;0.80;;;;;;;;;;4959615;29;20455;-94